sensor_id;sensor_type;location;lat;lon;timestamp;pressure;altitude;pressure_sealevel;temperature;humidity
44675;BME280;30388;52.038;-1.478;2022-10-16T00:00:48;65542.08;;;8.72;100.00
44675;BME280;30388;52.038;-1.478;2022-10-16T00:03:15;65521.77;;;8.72;100.00
44675;BME280;30388;52.038;-1.478;2022-10-16T00:05:43;65516.84;;;8.66;100.00
44675;BME280;30388;52.038;-1.478;2022-10-16T00:08:11;65536.65;;;8.92;100.00
44675;BME280;30388;52.038;-1.478;2022-10-16T00:10:39;65520.78;;;9.20;100.00
44675;BME280;30388;52.038;-1.478;2022-10-16T00:13:07;65527.14;;;8.79;100.00
44675;BME280;30388;52.038;-1.478;2022-10-16T00:15:36;65533.74;;;8.88;100.00
44675;BME280;30388;52.038;-1.478;2022-10-16T00:18:04;65542.87;;;9.00;100.00
44675;BME280;30388;52.038;-1.478;2022-10-16T00:20:34;65514.09;;;8.63;100.00
44675;BME280;30388;52.038;-1.478;2022-10-16T00:23:02;65519.26;;;8.69;100.00
44675;BME280;30388;52.038;-1.478;2022-10-16T00:25:29;65495.64;;;8.39;100.00
44675;BME280;30388;52.038;-1.478;2022-10-16T00:27:56;65502.97;;;8.49;100.00
44675;BME280;30388;52.038;-1.478;2022-10-16T00:30:23;65514.32;;;8.63;100.00
44675;BME280;30388;52.038;-1.478;2022-10-16T00:32:50;65533.11;;;8.87;100.00
44675;BME280;30388;52.038;-1.478;2022-10-16T00:35:17;65552.52;;;8.62;100.00
44675;BME280;30388;52.038;-1.478;2022-10-16T00:37:44;65538.38;;;8.67;100.00
44675;BME280;30388;52.038;-1.478;2022-10-16T00:40:12;65546.74;;;9.05;100.00
44675;BME280;30388;52.038;-1.478;2022-10-16T00:42:39;65506.68;;;8.53;100.00
44675;BME280;30388;52.038;-1.478;2022-10-16T00:45:08;65537.01;;;8.65;100.00
44675;BME280;30388;52.038;-1.478;2022-10-16T00:47:39;65504.36;;;8.73;100.00
44675;BME280;30388;52.038;-1.478;2022-10-16T00:50:10;65527.12;;;8.80;100.00
44675;BME280;30388;52.038;-1.478;2022-10-16T00:52:41;65533.97;;;8.62;100.00
44675;BME280;30388;52.038;-1.478;2022-10-16T00:55:10;65499.32;;;8.44;100.00
44675;BME280;30388;52.038;-1.478;2022-10-16T00:57:37;65545.59;;;8.76;100.00
44675;BME280;30388;52.038;-1.478;2022-10-16T01:00:09;65536.53;;;8.91;100.00
44675;BME280;30388;52.038;-1.478;2022-10-16T01:02:37;65550.66;;;8.60;100.00
44675;BME280;30388;52.038;-1.478;2022-10-16T01:05:05;65575.07;;;8.91;100.00
44675;BME280;30388;52.038;-1.478;2022-10-16T01:07:41;65554.26;;;8.88;100.00
44675;BME280;30388;52.038;-1.478;2022-10-16T01:10:21;65545.55;;;8.76;100.00
44675;BME280;30388;52.038;-1.478;2022-10-16T01:12:57;65576.62;;;8.93;100.00
44675;BME280;30388;52.038;-1.478;2022-10-16T01:15:30;65579.88;;;8.97;100.00
44675;BME280;30388;52.038;-1.478;2022-10-16T01:18:03;65566.57;;;9.29;100.00
44675;BME280;30388;52.038;-1.478;2022-10-16T01:20:37;65590.28;;;9.33;100.00
44675;BME280;30388;52.038;-1.478;2022-10-16T01:23:16;65561.31;;;9.22;100.00
44675;BME280;30388;52.038;-1.478;2022-10-16T01:26:02;65596.61;;;9.42;100.00
44675;BME280;30388;52.038;-1.478;2022-10-16T01:28:40;65565.13;;;9.28;100.00
44675;BME280;30388;52.038;-1.478;2022-10-16T01:31:09;65538.60;;;8.67;100.00
44675;BME280;30388;52.038;-1.478;2022-10-16T01:33:42;65608.92;;;9.11;100.00
44675;BME280;30388;52.038;-1.478;2022-10-16T01:36:14;65588.19;;;9.08;100.00
44675;BME280;30388;52.038;-1.478;2022-10-16T01:38:45;65571.10;;;9.08;100.00
44675;BME280;30388;52.038;-1.478;2022-10-16T01:41:17;65625.75;;;9.07;100.00
44675;BME280;30388;52.038;-1.478;2022-10-16T01:43:49;65604.33;;;9.29;100.00
44675;BME280;30388;52.038;-1.478;2022-10-16T01:46:21;65595.96;;;9.18;100.00
44675;BME280;30388;52.038;-1.478;2022-10-16T01:48:51;65623.28;;;9.30;100.00
44675;BME280;30388;52.038;-1.478;2022-10-16T01:51:19;65551.57;;;8.83;100.00
44675;BME280;30388;52.038;-1.478;2022-10-16T01:53:51;65496.16;;;8.40;100.00
44675;BME280;30388;52.038;-1.478;2022-10-16T01:56:21;65501.90;;;8.47;100.00
44675;BME280;30388;52.038;-1.478;2022-10-16T01:58:54;65483.61;;;8.24;100.00
44675;BME280;30388;52.038;-1.478;2022-10-16T02:01:24;65505.28;;;8.52;100.00
44675;BME280;30388;52.038;-1.478;2022-10-16T02:03:57;65535.09;;;8.62;100.00
44675;BME280;30388;52.038;-1.478;2022-10-16T02:06:26;65581.05;;;8.99;100.00
44675;BME280;30388;52.038;-1.478;2022-10-16T02:08:53;65644.47;;;9.30;100.00
44675;BME280;30388;52.038;-1.478;2022-10-16T02:11:20;65609.87;;;9.35;100.00
44675;BME280;30388;52.038;-1.478;2022-10-16T02:13:52;65630.44;;;9.61;100.00
44675;BME280;30388;52.038;-1.478;2022-10-16T02:16:23;65638.83;;;9.50;100.00
44675;BME280;30388;52.038;-1.478;2022-10-16T02:18:59;65656.25;;;9.46;100.00
44675;BME280;30388;52.038;-1.478;2022-10-16T02:21:29;65550.47;;;8.60;100.00
44675;BME280;30388;52.038;-1.478;2022-10-16T02:24:05;65570.92;;;8.85;100.00
44675;BME280;30388;52.038;-1.478;2022-10-16T02:26:39;65546.79;;;8.78;100.00
44675;BME280;30388;52.038;-1.478;2022-10-16T02:29:12;65584.97;;;9.04;100.00
44675;BME280;30388;52.038;-1.478;2022-10-16T02:31:43;65645.82;;;9.59;100.00
44675;BME280;30388;52.038;-1.478;2022-10-16T02:34:13;65630.68;;;9.40;100.00
44675;BME280;30388;52.038;-1.478;2022-10-16T02:36:43;65635.81;;;9.46;100.00
44675;BME280;30388;52.038;-1.478;2022-10-16T02:39:12;65591.03;;;9.12;100.00
44675;BME280;30388;52.038;-1.478;2022-10-16T02:41:39;65603.21;;;9.28;100.00
44675;BME280;30388;52.038;-1.478;2022-10-16T02:44:06;65697.46;;;9.97;100.00
44675;BME280;30388;52.038;-1.478;2022-10-16T02:46:33;65648.32;;;9.62;100.00
44675;BME280;30388;52.038;-1.478;2022-10-16T02:49:00;65623.49;;;9.31;100.00
44675;BME280;30388;52.038;-1.478;2022-10-16T02:51:27;65678.85;;;9.74;100.00
44675;BME280;30388;52.038;-1.478;2022-10-16T02:53:55;65634.74;;;9.19;100.00
44675;BME280;30388;52.038;-1.478;2022-10-16T02:56:22;65664.38;;;9.82;100.00
44675;BME280;30388;52.038;-1.478;2022-10-16T02:58:49;65610.23;;;9.36;100.00
44675;BME280;30388;52.038;-1.478;2022-10-16T03:01:16;65603.64;;;9.06;100.00
44675;BME280;30388;52.038;-1.478;2022-10-16T03:03:43;65644.39;;;9.57;100.00
44675;BME280;30388;52.038;-1.478;2022-10-16T03:06:10;65671.67;;;9.65;100.00
44675;BME280;30388;52.038;-1.478;2022-10-16T03:08:38;65597.26;;;9.19;100.00
44675;BME280;30388;52.038;-1.478;2022-10-16T03:11:05;65587.09;;;9.07;100.00
44675;BME280;30388;52.038;-1.478;2022-10-16T03:13:32;65551.81;;;8.62;100.00
44675;BME280;30388;52.038;-1.478;2022-10-16T03:15:59;65594.65;;;9.16;100.00
44675;BME280;30388;52.038;-1.478;2022-10-16T03:18:26;65542.61;;;8.50;100.00
44675;BME280;30388;52.038;-1.478;2022-10-16T03:20:54;65517.54;;;8.19;100.00
44675;BME280;30388;52.038;-1.478;2022-10-16T03:23:21;65589.99;;;8.88;100.00
44675;BME280;30388;52.038;-1.478;2022-10-16T03:25:48;65621.26;;;9.28;100.00
44675;BME280;30388;52.038;-1.478;2022-10-16T03:28:15;65667.34;;;9.61;100.00
44675;BME280;30388;52.038;-1.478;2022-10-16T03:30:43;65697.71;;;9.97;100.00
44675;BME280;30388;52.038;-1.478;2022-10-16T03:33:10;65659.97;;;9.49;100.00
44675;BME280;30388;52.038;-1.478;2022-10-16T03:35:37;65674.97;;;9.69;100.00
44675;BME280;30388;52.038;-1.478;2022-10-16T03:38:04;65624.16;;;9.53;100.00
44675;BME280;30388;52.038;-1.478;2022-10-16T03:40:31;65681.27;;;9.76;100.00
44675;BME280;30388;52.038;-1.478;2022-10-16T03:42:59;65636.49;;;9.20;100.00
44675;BME280;30388;52.038;-1.478;2022-10-16T03:45:26;65626.90;;;9.56;100.00
44675;BME280;30388;52.038;-1.478;2022-10-16T03:47:53;65601.97;;;9.03;100.00
44675;BME280;30388;52.038;-1.478;2022-10-16T03:50:20;65548.25;;;8.57;100.00
44675;BME280;30388;52.038;-1.478;2022-10-16T03:52:47;65592.80;;;8.64;100.00
44675;BME280;30388;52.038;-1.478;2022-10-16T03:55:14;65665.30;;;9.83;100.00
44675;BME280;30388;52.038;-1.478;2022-10-16T03:57:41;65666.92;;;9.59;100.00
44675;BME280;30388;52.038;-1.478;2022-10-16T04:00:11;65606.80;;;8.82;100.00
44675;BME280;30388;52.038;-1.478;2022-10-16T04:02:39;65681.63;;;9.77;100.00
44675;BME280;30388;52.038;-1.478;2022-10-16T04:05:07;65701.63;;;10.03;100.00
44675;BME280;30388;52.038;-1.478;2022-10-16T04:07:34;65717.87;;;10.23;100.00
44675;BME280;30388;52.038;-1.478;2022-10-16T04:10:02;65699.69;;;9.78;100.00
44675;BME280;30388;52.038;-1.478;2022-10-16T04:12:29;65724.44;;;10.30;100.00
44675;BME280;30388;52.038;-1.478;2022-10-16T04:14:56;65626.50;;;9.07;100.00
44675;BME280;30388;52.038;-1.478;2022-10-16T04:17:23;65648.43;;;9.35;100.00
44675;BME280;30388;52.038;-1.478;2022-10-16T04:19:51;65670.21;;;9.63;100.00
44675;BME280;30388;52.038;-1.478;2022-10-16T04:22:18;65650.93;;;9.38;100.00
44675;BME280;30388;52.038;-1.478;2022-10-16T04:24:45;65643.53;;;9.56;100.00
44675;BME280;30388;52.038;-1.478;2022-10-16T04:27:12;65631.24;;;9.40;100.00
44675;BME280;30388;52.038;-1.478;2022-10-16T04:29:39;65623.59;;;9.30;100.00
44675;BME280;30388;52.038;-1.478;2022-10-16T04:32:08;65589.23;;;8.87;100.00
44675;BME280;30388;52.038;-1.478;2022-10-16T04:34:39;65593.66;;;9.15;100.00
44675;BME280;30388;52.038;-1.478;2022-10-16T04:37:06;65626.31;;;9.34;100.00
44675;BME280;30388;52.038;-1.478;2022-10-16T04:39:34;65556.53;;;8.68;100.00
44675;BME280;30388;52.038;-1.478;2022-10-16T04:42:01;65611.46;;;8.88;100.00
44675;BME280;30388;52.038;-1.478;2022-10-16T04:44:28;65587.38;;;9.07;100.00
44675;BME280;30388;52.038;-1.478;2022-10-16T04:46:55;65567.61;;;8.82;100.00
44675;BME280;30388;52.038;-1.478;2022-10-16T04:49:22;65554.13;;;8.65;100.00
44675;BME280;30388;52.038;-1.478;2022-10-16T04:51:50;65591.79;;;9.13;100.00
44675;BME280;30388;52.038;-1.478;2022-10-16T04:54:17;65556.44;;;8.45;100.00
44675;BME280;30388;52.038;-1.478;2022-10-16T04:56:44;65587.67;;;9.07;100.00
44675;BME280;30388;52.038;-1.478;2022-10-16T04:59:11;65591.30;;;9.12;100.00
44675;BME280;30388;52.038;-1.478;2022-10-16T05:01:38;65587.76;;;9.08;100.00
44675;BME280;30388;52.038;-1.478;2022-10-16T05:04:05;65579.81;;;8.97;100.00
44675;BME280;30388;52.038;-1.478;2022-10-16T05:06:33;65578.83;;;8.74;100.00
44675;BME280;30388;52.038;-1.478;2022-10-16T05:08:59;65595.01;;;8.94;100.00
44675;BME280;30388;52.038;-1.478;2022-10-16T05:11:27;65551.78;;;8.62;100.00
44675;BME280;30388;52.038;-1.478;2022-10-16T05:13:54;65611.89;;;8.89;100.00
44675;BME280;30388;52.038;-1.478;2022-10-16T05:16:21;65621.03;;;9.01;100.00
44675;BME280;30388;52.038;-1.478;2022-10-16T05:18:48;65620.46;;;9.26;100.00
44675;BME280;30388;52.038;-1.478;2022-10-16T05:21:15;65632.82;;;9.16;100.00
44675;BME280;30388;52.038;-1.478;2022-10-16T05:23:43;65619.86;;;8.99;100.00
44675;BME280;30388;52.038;-1.478;2022-10-16T05:26:10;65623.21;;;9.30;100.00
44675;BME280;30388;52.038;-1.478;2022-10-16T05:28:37;65544.10;;;8.53;100.00
44675;BME280;30388;52.038;-1.478;2022-10-16T05:31:05;65576.91;;;8.71;100.00
44675;BME280;30388;52.038;-1.478;2022-10-16T05:33:33;65661.73;;;9.52;100.00
44675;BME280;30388;52.038;-1.478;2022-10-16T05:36:01;65612.34;;;8.90;100.00
44675;BME280;30388;52.038;-1.478;2022-10-16T05:38:29;65618.84;;;8.98;100.00
44675;BME280;30388;52.038;-1.478;2022-10-16T05:40:56;65681.13;;;9.76;100.00
44675;BME280;30388;52.038;-1.478;2022-10-16T05:43:23;65644.09;;;9.30;100.00
44675;BME280;30388;52.038;-1.478;2022-10-16T05:45:55;65649.00;;;9.36;100.00
44675;BME280;30388;52.038;-1.478;2022-10-16T05:48:22;65723.09;;;9.84;100.00
44675;BME280;30388;52.038;-1.478;2022-10-16T05:50:56;65625.42;;;9.06;100.00
44675;BME280;30388;52.038;-1.478;2022-10-16T05:53:24;65736.81;;;10.25;100.00
44675;BME280;30388;52.038;-1.478;2022-10-16T05:55:53;65826.57;;;11.16;100.00
44675;BME280;30388;52.038;-1.478;2022-10-16T05:58:20;65836.81;;;10.80;100.00
44675;BME280;30388;52.038;-1.478;2022-10-16T06:00:54;65809.23;;;10.94;100.00
44675;BME280;30388;52.038;-1.478;2022-10-16T06:03:22;65768.58;;;10.64;100.00
44675;BME280;30388;52.038;-1.478;2022-10-16T06:05:49;65749.77;;;10.41;100.00
44675;BME280;30388;52.038;-1.478;2022-10-16T06:08:17;65724.10;;;10.31;100.00
44675;BME280;30388;52.038;-1.478;2022-10-16T06:10:46;65667.76;;;9.59;100.00
44675;BME280;30388;52.038;-1.478;2022-10-16T06:13:15;65728.58;;;10.15;100.00
44675;BME280;30388;52.038;-1.478;2022-10-16T06:15:43;65667.74;;;9.38;100.00
44675;BME280;30388;52.038;-1.478;2022-10-16T06:18:10;65640.18;;;9.24;100.00
44675;BME280;30388;52.038;-1.478;2022-10-16T06:20:38;65636.87;;;9.20;100.00
44675;BME280;30388;52.038;-1.478;2022-10-16T06:23:05;65576.06;;;8.44;100.00
44675;BME280;30388;52.038;-1.478;2022-10-16T06:25:32;65638.88;;;9.24;100.00
44675;BME280;30388;52.038;-1.478;2022-10-16T06:27:59;65669.03;;;9.61;100.00
44675;BME280;30388;52.038;-1.478;2022-10-16T06:30:26;65731.81;;;10.41;100.00
44675;BME280;30388;52.038;-1.478;2022-10-16T06:32:54;65674.71;;;9.69;100.00
44675;BME280;30388;52.038;-1.478;2022-10-16T06:35:21;65733.97;;;10.21;100.00
44675;BME280;30388;52.038;-1.478;2022-10-16T06:37:48;65733.39;;;9.98;100.00
44675;BME280;30388;52.038;-1.478;2022-10-16T06:40:16;65710.66;;;9.69;100.00
44675;BME280;30388;52.038;-1.478;2022-10-16T06:42:43;65731.16;;;10.17;100.00
44675;BME280;30388;52.038;-1.478;2022-10-16T06:45:10;65728.85;;;10.14;100.00
44675;BME280;30388;52.038;-1.478;2022-10-16T06:47:37;65739.36;;;10.27;100.00
44675;BME280;30388;52.038;-1.478;2022-10-16T06:50:05;65709.94;;;9.90;100.00
44675;BME280;30388;52.038;-1.478;2022-10-16T06:52:32;65669.46;;;9.40;100.00
44675;BME280;30388;52.038;-1.478;2022-10-16T06:55:00;65701.75;;;10.02;100.00
44675;BME280;30388;52.038;-1.478;2022-10-16T06:57:27;65709.60;;;9.90;100.00
44675;BME280;30388;52.038;-1.478;2022-10-16T06:59:54;65790.88;;;10.71;100.00
44675;BME280;30388;52.038;-1.478;2022-10-16T07:02:21;65808.36;;;10.92;100.00
44675;BME280;30388;52.038;-1.478;2022-10-16T07:04:48;65801.91;;;10.85;100.00
44675;BME280;30388;52.038;-1.478;2022-10-16T07:07:15;65823.96;;;10.63;100.00
44675;BME280;30388;52.038;-1.478;2022-10-16T07:09:43;65763.02;;;9.86;100.00
44675;BME280;30388;52.038;-1.478;2022-10-16T07:12:11;65758.47;;;9.81;100.00
44675;BME280;30388;52.038;-1.478;2022-10-16T07:14:38;65820.46;;;10.81;100.00
44675;BME280;30388;52.038;-1.478;2022-10-16T07:17:05;65781.88;;;10.10;100.00
44675;BME280;30388;52.038;-1.478;2022-10-16T07:19:32;65850.81;;;10.98;100.00
44675;BME280;30388;52.038;-1.478;2022-10-16T07:21:59;65841.86;;;10.86;100.00
44675;BME280;30388;52.038;-1.478;2022-10-16T07:24:26;65860.19;;;11.09;100.00
44675;BME280;30388;52.038;-1.478;2022-10-16T07:26:53;65852.59;;;11.00;100.00
44675;BME280;30388;52.038;-1.478;2022-10-16T07:29:21;65910.55;;;11.46;100.00
44675;BME280;30388;52.038;-1.478;2022-10-16T07:31:49;65890.96;;;11.48;100.00
44675;BME280;30388;52.038;-1.478;2022-10-16T07:34:18;65891.01;;;11.21;100.00
44675;BME280;30388;52.038;-1.478;2022-10-16T07:36:48;65950.05;;;11.96;100.00
44675;BME280;30388;52.038;-1.478;2022-10-16T07:39:15;65922.06;;;11.61;100.00
44675;BME280;30388;52.038;-1.478;2022-10-16T07:41:42;65949.17;;;11.95;100.00
44675;BME280;30388;52.038;-1.478;2022-10-16T07:44:09;65937.83;;;11.81;100.00
44675;BME280;30388;52.038;-1.478;2022-10-16T07:46:37;65954.23;;;12.01;100.00
44675;BME280;30388;52.038;-1.478;2022-10-16T07:49:04;65929.11;;;11.69;100.00
44675;BME280;30388;52.038;-1.478;2022-10-16T07:51:31;65909.74;;;11.72;100.00
44675;BME280;30388;52.038;-1.478;2022-10-16T07:53:58;65943.85;;;11.66;100.00
44675;BME280;30388;52.038;-1.478;2022-10-16T07:56:25;65937.89;;;12.08;100.00
44675;BME280;30388;52.038;-1.478;2022-10-16T07:58:52;65874.89;;;11.01;100.00
44675;BME280;30388;52.038;-1.478;2022-10-16T08:01:20;65816.98;;;11.04;100.00
44675;BME280;30388;52.038;-1.478;2022-10-16T08:03:48;65763.53;;;10.37;100.00
44675;BME280;30388;52.038;-1.478;2022-10-16T08:06:17;65768.30;;;10.64;100.00
44675;BME280;30388;52.038;-1.478;2022-10-16T08:08:45;65741.57;;;10.31;100.00
44675;BME280;30388;52.038;-1.478;2022-10-16T08:11:12;65716.73;;;9.99;100.00
44675;BME280;30388;52.038;-1.478;2022-10-16T08:13:39;65732.58;;;10.42;100.00
44675;BME280;30388;52.038;-1.478;2022-10-16T08:16:06;65769.72;;;10.44;100.00
44675;BME280;30388;52.038;-1.478;2022-10-16T08:18:34;65767.48;;;10.64;100.00
44675;BME280;30388;52.038;-1.478;2022-10-16T08:21:03;65736.12;;;10.23;100.00
44675;BME280;30388;52.038;-1.478;2022-10-16T08:23:30;65708.18;;;10.12;100.00
44675;BME280;30388;52.038;-1.478;2022-10-16T08:26:03;65705.53;;;10.07;100.00
44675;BME280;30388;52.038;-1.478;2022-10-16T08:28:31;65728.13;;;9.92;100.00
44675;BME280;30388;52.038;-1.478;2022-10-16T08:31:06;65814.83;;;10.74;100.00
44675;BME280;30388;52.038;-1.478;2022-10-16T08:33:32;65754.01;;;10.24;100.00
44675;BME280;30388;52.038;-1.478;2022-10-16T08:36:00;65730.46;;;10.17;100.00
44675;BME280;30388;52.038;-1.478;2022-10-16T08:38:27;65792.48;;;10.73;100.00
44675;BME280;30388;52.038;-1.478;2022-10-16T08:40:57;65747.34;;;10.38;100.00
44675;BME280;30388;52.038;-1.478;2022-10-16T08:43:39;65761.20;;;10.33;100.00
44675;BME280;30388;52.038;-1.478;2022-10-16T08:46:20;65849.58;;;10.96;100.00
44675;BME280;30388;52.038;-1.478;2022-10-16T08:48:52;65881.65;;;11.36;100.00
44675;BME280;30388;52.038;-1.478;2022-10-16T08:51:23;65823.25;;;10.85;100.00
44675;BME280;30388;52.038;-1.478;2022-10-16T08:53:55;65884.97;;;11.40;100.00
44675;BME280;30388;52.038;-1.478;2022-10-16T08:56:23;65847.72;;;10.94;100.00
44675;BME280;30388;52.038;-1.478;2022-10-16T08:58:51;65853.19;;;11.01;100.00
44675;BME280;30388;52.038;-1.478;2022-10-16T09:01:21;65957.45;;;12.33;100.00
44675;BME280;30388;52.038;-1.478;2022-10-16T09:04:00;65941.71;;;12.13;100.00
44675;BME280;30388;52.038;-1.478;2022-10-16T09:06:40;65963.85;;;12.13;100.00
44675;BME280;30388;52.038;-1.478;2022-10-16T09:09:24;66074.91;;;13.09;100.00
44675;BME280;30388;52.038;-1.478;2022-10-16T09:12:00;66071.03;;;13.27;100.00
44675;BME280;30388;52.038;-1.478;2022-10-16T09:14:40;66072.60;;;13.29;100.00
44675;BME280;30388;52.038;-1.478;2022-10-16T09:17:23;66064.71;;;13.19;100.00
44675;BME280;30388;52.038;-1.478;2022-10-16T09:20:12;66067.40;;;13.00;100.00
44675;BME280;30388;52.038;-1.478;2022-10-16T09:22:41;66140.54;;;14.14;100.00
44675;BME280;30388;52.038;-1.478;2022-10-16T09:25:13;66151.97;;;13.79;100.00
44675;BME280;30388;52.038;-1.478;2022-10-16T09:27:43;66205.41;;;14.47;100.00
44675;BME280;30388;52.038;-1.478;2022-10-16T09:30:13;66188.71;;;14.26;100.00
44675;BME280;30388;52.038;-1.478;2022-10-16T09:32:42;66159.70;;;13.90;100.00
44675;BME280;30388;52.038;-1.478;2022-10-16T09:35:14;66187.68;;;14.25;100.00
44675;BME280;30388;52.038;-1.478;2022-10-16T09:37:44;66103.38;;;13.18;100.00
44675;BME280;30388;52.038;-1.478;2022-10-16T09:40:23;66178.53;;;14.14;100.00
44675;BME280;30388;52.038;-1.478;2022-10-16T09:42:56;66319.26;;;15.68;100.00
44675;BME280;30388;52.038;-1.478;2022-10-16T09:45:24;66235.84;;;14.86;100.00
44675;BME280;30388;52.038;-1.478;2022-10-16T09:47:51;66248.37;;;15.02;100.00
44675;BME280;30388;52.038;-1.478;2022-10-16T09:50:23;66276.30;;;15.14;100.00
44675;BME280;30388;52.038;-1.478;2022-10-16T09:53:02;66226.60;;;14.51;100.00
44675;BME280;30388;52.038;-1.478;2022-10-16T09:55:30;66295.85;;;15.39;100.00
44675;BME280;30388;52.038;-1.478;2022-10-16T09:57:57;66334.67;;;15.65;100.00
44675;BME280;30388;52.038;-1.478;2022-10-16T10:00:26;66343.43;;;15.77;100.00
44675;BME280;30388;52.038;-1.478;2022-10-16T10:02:54;66287.29;;;15.06;100.00
44675;BME280;30388;52.038;-1.478;2022-10-16T10:05:25;66345.68;;;15.79;100.00
44675;BME280;30388;52.038;-1.478;2022-10-16T10:07:56;66298.75;;;15.42;100.00
44675;BME280;30388;52.038;-1.478;2022-10-16T10:10:26;66250.95;;;14.82;100.00
44675;BME280;30388;52.038;-1.478;2022-10-16T10:12:54;66306.54;;;15.51;100.00
44675;BME280;30388;52.038;-1.478;2022-10-16T10:15:23;66351.15;;;15.85;100.00
44675;BME280;30388;52.038;-1.478;2022-10-16T10:17:53;66357.94;;;15.68;100.00
44675;BME280;30388;52.038;-1.478;2022-10-16T10:20:25;66420.18;;;16.72;100.00
44675;BME280;30388;52.038;-1.478;2022-10-16T10:22:55;66415.77;;;16.18;100.00
44675;BME280;30388;52.038;-1.478;2022-10-16T10:25:31;66335.94;;;15.67;100.00
44675;BME280;30388;52.038;-1.478;2022-10-16T10:28:46;66400.73;;;16.21;100.00
44675;BME280;30388;52.038;-1.478;2022-10-16T10:31:24;66386.85;;;16.31;100.00
44675;BME280;30388;52.038;-1.478;2022-10-16T10:33:58;66354.05;;;15.40;100.00
44675;BME280;30388;52.038;-1.478;2022-10-16T10:36:30;66465.63;;;16.81;100.00
44675;BME280;30388;52.038;-1.478;2022-10-16T10:39:02;66415.26;;;16.17;100.00
44675;BME280;30388;52.038;-1.478;2022-10-16T10:41:53;66360.64;;;15.97;100.00
44675;BME280;30388;52.038;-1.478;2022-10-16T10:44:36;66402.68;;;16.50;100.00
44675;BME280;30388;52.038;-1.478;2022-10-16T10:47:12;66289.05;;;15.07;100.00
44675;BME280;30388;52.038;-1.478;2022-10-16T10:49:53;66424.64;;;16.53;100.00
44675;BME280;30388;52.038;-1.478;2022-10-16T10:52:36;66394.39;;;15.91;100.00
44675;BME280;30388;52.038;-1.478;2022-10-16T10:55:14;66520.21;;;17.23;100.00
44675;BME280;30388;52.038;-1.478;2022-10-16T10:57:52;66443.91;;;16.54;100.00
44675;BME280;30388;52.038;-1.478;2022-10-16T11:00:28;66459.48;;;16.74;100.00
44675;BME280;30388;52.038;-1.478;2022-10-16T11:03:03;66455.42;;;16.68;100.00
44675;BME280;30388;52.038;-1.478;2022-10-16T11:05:41;66461.02;;;16.75;100.00
44675;BME280;30388;52.038;-1.478;2022-10-16T11:08:15;66524.24;;;17.54;100.00
44675;BME280;30388;52.038;-1.478;2022-10-16T11:10:50;66531.95;;;17.64;100.00
44675;BME280;30388;52.038;-1.478;2022-10-16T11:13:26;66387.19;;;15.83;100.00
44675;BME280;30388;52.038;-1.478;2022-10-16T11:15:59;66545.67;;;17.54;100.00
44675;BME280;30388;52.038;-1.478;2022-10-16T11:18:37;66562.77;;;18.02;100.00
44675;BME280;30388;52.038;-1.478;2022-10-16T11:21:11;66647.14;;;18.59;100.00
44675;BME280;30388;52.038;-1.478;2022-10-16T11:23:44;66655.31;;;18.48;100.00
44675;BME280;30388;52.038;-1.478;2022-10-16T11:26:17;66633.70;;;18.43;100.00
44675;BME280;30388;52.038;-1.478;2022-10-16T11:28:49;66655.06;;;18.69;100.00
44675;BME280;30388;52.038;-1.478;2022-10-16T11:31:24;66700.60;;;18.78;100.00
44675;BME280;30388;52.038;-1.478;2022-10-16T11:34:00;66609.55;;;17.90;100.00
44675;BME280;30388;52.038;-1.478;2022-10-16T11:36:35;66649.32;;;18.14;100.00
44675;BME280;30388;52.038;-1.478;2022-10-16T11:39:16;66620.56;;;18.05;100.00
44675;BME280;30388;52.038;-1.478;2022-10-16T11:41:49;66612.72;;;18.17;100.00
44675;BME280;30388;52.038;-1.478;2022-10-16T11:44:32;66564.35;;;18.06;100.00
44675;BME280;30388;52.038;-1.478;2022-10-16T11:47:10;66436.36;;;16.44;100.00
44675;BME280;30388;52.038;-1.478;2022-10-16T11:49:40;66520.66;;;17.23;100.00
44675;BME280;30388;52.038;-1.478;2022-10-16T11:52:15;66520.91;;;17.24;100.00
44675;BME280;30388;52.038;-1.478;2022-10-16T11:54:49;66474.60;;;16.66;100.00
44675;BME280;30388;52.038;-1.478;2022-10-16T11:57:22;66451.05;;;16.85;100.00
44675;BME280;30388;52.038;-1.478;2022-10-16T11:59:55;66475.25;;;16.93;100.00
44675;BME280;30388;52.038;-1.478;2022-10-16T12:02:32;66581.32;;;18.00;100.00
44675;BME280;30388;52.038;-1.478;2022-10-16T12:05:12;66661.35;;;18.78;100.00
44675;BME280;30388;52.038;-1.478;2022-10-16T12:07:49;66434.49;;;16.15;100.00
44675;BME280;30388;52.038;-1.478;2022-10-16T12:10:21;66595.33;;;17.95;100.00
44675;BME280;30388;52.038;-1.478;2022-10-16T12:12:48;66740.72;;;19.29;100.00
44675;BME280;30388;52.038;-1.478;2022-10-16T12:15:22;66706.54;;;18.85;100.00
44675;BME280;30388;52.038;-1.478;2022-10-16T12:17:50;66664.34;;;18.60;100.00
44675;BME280;30388;52.038;-1.478;2022-10-16T12:20:22;66692.37;;;19.17;100.00
44675;BME280;30388;52.038;-1.478;2022-10-16T12:22:52;66471.75;;;16.89;100.00
44675;BME280;30388;52.038;-1.478;2022-10-16T12:25:22;66487.42;;;17.08;100.00
44675;BME280;30388;52.038;-1.478;2022-10-16T12:28:17;66711.14;;;19.19;100.00
44675;BME280;30388;52.038;-1.478;2022-10-16T12:30:53;66541.10;;;17.49;100.00
44675;BME280;30388;52.038;-1.478;2022-10-16T12:33:24;66323.88;;;15.51;100.00
44675;BME280;30388;52.038;-1.478;2022-10-16T12:35:52;66452.25;;;16.65;100.00
44675;BME280;30388;52.038;-1.478;2022-10-16T12:38:25;66488.70;;;16.84;100.00
44675;BME280;30388;52.038;-1.478;2022-10-16T12:40:59;66461.02;;;16.75;100.00
44675;BME280;30388;52.038;-1.478;2022-10-16T12:43:35;66454.37;;;16.89;100.00
44675;BME280;30388;52.038;-1.478;2022-10-16T12:46:18;66465.99;;;16.82;100.00
44675;BME280;30388;52.038;-1.478;2022-10-16T12:48:47;66290.77;;;15.10;100.00
44675;BME280;30388;52.038;-1.478;2022-10-16T12:51:23;66482.20;;;17.02;100.00
44675;BME280;30388;52.038;-1.478;2022-10-16T12:53:58;66437.57;;;16.46;100.00
44675;BME280;30388;52.038;-1.478;2022-10-16T12:56:36;66425.23;;;16.30;100.00
44675;BME280;30388;52.038;-1.478;2022-10-16T12:59:14;66342.73;;;15.98;100.00
44675;BME280;30388;52.038;-1.478;2022-10-16T13:01:56;66279.91;;;15.18;100.00